createdAt,value
2023-07-06T00:00:02.753Z,101510
2023-07-06T00:05:00.716Z,101510
2023-07-06T00:10:00.660Z,101510
2023-07-06T00:15:00.725Z,101500
2023-07-06T00:20:00.757Z,101500
2023-07-06T00:25:00.681Z,101510
2023-07-06T00:30:00.694Z,101510
2023-07-06T00:35:00.784Z,101510
2023-07-06T00:40:00.700Z,101510
2023-07-06T00:45:01.048Z,101510
2023-07-06T00:50:04.954Z,101510
2023-07-06T00:55:01.938Z,101500
2023-07-06T01:00:02.549Z,101510
2023-07-06T01:05:01.184Z,101510
2023-07-06T01:10:01.252Z,101520
2023-07-06T01:15:00.964Z,101510
2023-07-06T01:20:20.592Z,101510
2023-07-06T01:25:18.127Z,101510
2023-07-06T01:30:18.252Z,101510
2023-07-06T01:35:09.984Z,101510
2023-07-06T01:40:00.726Z,101510
2023-07-06T01:45:04.677Z,101520
2023-07-06T01:50:03.487Z,101510
2023-07-06T01:55:15.038Z,101510
2023-07-06T02:00:03.657Z,101500
2023-07-06T02:05:00.941Z,101510
2023-07-06T02:10:00.748Z,101510
2023-07-06T02:15:00.793Z,101510
2023-07-06T02:20:00.743Z,101510
2023-07-06T02:25:00.724Z,101510
2023-07-06T02:30:00.723Z,101500
2023-07-06T02:35:01.002Z,101510
2023-07-06T02:40:00.690Z,101510
2023-07-06T02:45:01.485Z,101500
2023-07-06T02:50:00.753Z,101510
2023-07-06T02:55:00.706Z,101520
2023-07-06T03:00:01.104Z,101520
2023-07-06T03:05:00.736Z,101520
2023-07-06T03:10:01.403Z,101520
2023-07-06T03:15:00.762Z,101520
2023-07-06T03:20:00.758Z,101520
2023-07-06T03:25:00.742Z,101520
2023-07-06T03:30:00.747Z,101530
2023-07-06T03:35:00.730Z,101530
2023-07-06T03:40:00.692Z,101540
2023-07-06T03:45:00.697Z,101530
2023-07-06T03:50:01.062Z,101530
2023-07-06T03:55:00.825Z,101540
2023-07-06T04:00:04.530Z,101550
2023-07-06T04:05:00.762Z,101540
2023-07-06T04:10:00.833Z,101560
2023-07-06T04:15:00.692Z,101550
2023-07-06T04:20:00.748Z,101550
2023-07-06T04:25:00.731Z,101550
2023-07-06T04:30:00.790Z,101550
2023-07-06T04:35:00.765Z,101550
2023-07-06T04:40:02.184Z,101560
2023-07-06T04:45:00.718Z,101560
2023-07-06T04:50:00.741Z,101570
2023-07-06T04:55:00.751Z,101570
2023-07-06T05:00:03.778Z,101580
2023-07-06T05:05:00.705Z,101580
2023-07-06T05:10:00.845Z,101580
2023-07-06T05:15:02.459Z,101580
2023-07-06T05:20:00.734Z,101580
2023-07-06T05:25:00.718Z,101580
2023-07-06T05:30:01.414Z,101580
2023-07-06T05:35:00.888Z,101580
2023-07-06T05:40:01.190Z,101580
2023-07-06T05:45:01.108Z,101580
2023-07-06T05:50:00.768Z,101590
2023-07-06T05:55:00.710Z,101590
2023-07-06T06:00:01.549Z,101600
2023-07-06T06:05:00.739Z,101610
2023-07-06T06:10:01.969Z,101610
2023-07-06T06:15:00.732Z,101620
2023-07-06T06:20:00.731Z,101630
2023-07-06T06:25:01.453Z,101640
2023-07-06T06:30:00.781Z,101640
2023-07-06T06:35:00.814Z,101640
2023-07-06T06:40:01.409Z,101640
2023-07-06T06:45:00.801Z,101650
2023-07-06T06:50:00.739Z,101650
2023-07-06T06:55:00.700Z,101670
2023-07-06T07:00:03.084Z,101670
2023-07-06T07:05:00.750Z,101670
2023-07-06T07:10:00.742Z,101680
2023-07-06T07:15:00.694Z,101680
2023-07-06T07:20:00.842Z,101690
2023-07-06T07:25:00.834Z,101690
2023-07-06T07:30:03.666Z,101700
2023-07-06T07:35:00.844Z,101700
2023-07-06T07:40:00.724Z,101710
2023-07-06T07:45:00.714Z,101710
2023-07-06T07:50:00.740Z,101720
2023-07-06T07:55:00.760Z,101720
2023-07-06T08:00:00.921Z,101710
2023-07-06T08:05:00.693Z,101710
2023-07-06T08:10:00.743Z,101720
2023-07-06T08:15:00.764Z,101720
2023-07-06T08:20:12.834Z,101730
2023-07-06T08:25:00.813Z,101730
2023-07-06T08:30:01.196Z,101740
2023-07-06T08:35:00.719Z,101740
2023-07-06T08:40:00.737Z,101740
2023-07-06T08:45:01.729Z,101750
2023-07-06T08:50:00.741Z,101750
2023-07-06T08:55:00.781Z,101760
2023-07-06T09:00:01.309Z,101760
2023-07-06T09:05:07.241Z,101760
2023-07-06T09:10:17.941Z,101760
2023-07-06T09:15:01.912Z,101760
2023-07-06T09:20:02.832Z,101770
2023-07-06T09:25:01.524Z,101770
2023-07-06T09:30:06.714Z,101760
2023-07-06T09:35:13.034Z,101760
2023-07-06T09:45:03.386Z,101760
2023-07-06T09:50:13.623Z,101750
2023-07-06T09:55:12.526Z,101750
2023-07-06T10:00:03.308Z,101750
2023-07-06T10:05:10.712Z,101750
2023-07-06T10:10:01.729Z,101750
2023-07-06T10:15:06.083Z,101750
2023-07-06T10:20:13.315Z,101750
2023-07-06T10:25:20.593Z,101750
2023-07-06T10:30:06.043Z,101750
2023-07-06T10:35:07.932Z,101750
2023-07-06T10:40:09.731Z,101750
2023-07-06T10:45:02.195Z,101750
2023-07-06T10:50:09.650Z,101750
2023-07-06T10:55:02.367Z,101750
2023-07-06T11:00:15.295Z,101750
2023-07-06T11:05:10.273Z,101750
2023-07-06T11:10:11.701Z,101760
2023-07-06T11:15:15.927Z,101770
2023-07-06T11:20:09.893Z,101770
2023-07-06T11:25:00.870Z,101770
2023-07-06T11:30:13.604Z,101780
2023-07-06T11:35:20.623Z,101790
2023-07-06T11:40:04.953Z,101790
2023-07-06T11:45:12.334Z,101790
2023-07-06T11:50:05.615Z,101790
2023-07-06T11:55:03.719Z,101790
2023-07-06T12:00:04.750Z,101800
2023-07-06T12:05:00.893Z,101780
2023-07-06T12:10:03.248Z,101790
2023-07-06T12:15:00.852Z,101790
2023-07-06T12:20:02.353Z,101790
2023-07-06T12:25:00.761Z,101790
2023-07-06T12:30:03.445Z,101800
2023-07-06T12:35:00.781Z,101800
2023-07-06T12:40:00.703Z,101800
2023-07-06T12:45:01.803Z,101800
2023-07-06T12:50:02.078Z,101800
2023-07-06T12:55:01.074Z,101800
2023-07-06T13:00:10.742Z,101800
2023-07-06T13:05:11.990Z,101800
2023-07-06T13:10:00.712Z,101800
2023-07-06T13:15:01.271Z,101800
2023-07-06T13:20:00.716Z,101800
2023-07-06T13:25:01.494Z,101800
2023-07-06T13:30:00.716Z,101800
2023-07-06T13:35:00.753Z,101800
2023-07-06T13:40:00.789Z,101800
2023-07-06T13:45:00.758Z,101800
2023-07-06T13:50:00.703Z,101800
2023-07-06T13:55:00.783Z,101800
2023-07-06T14:00:01.374Z,101790
2023-07-06T14:05:00.702Z,101800
2023-07-06T14:10:00.763Z,101800
2023-07-06T14:15:01.054Z,101790
2023-07-06T14:20:03.739Z,101780
2023-07-06T14:25:00.821Z,101780
2023-07-06T14:30:01.117Z,101790
2023-07-06T14:35:00.723Z,101780
2023-07-06T14:40:00.657Z,101790
2023-07-06T14:45:01.094Z,101790
2023-07-06T14:50:01.050Z,101770
2023-07-06T14:55:00.705Z,101770
2023-07-06T15:00:01.874Z,101780
2023-07-06T15:05:00.732Z,101780
2023-07-06T15:10:00.959Z,101780
2023-07-06T15:15:00.711Z,101780
2023-07-06T15:20:00.787Z,101780
2023-07-06T15:25:01.066Z,101780
2023-07-06T15:30:00.678Z,101770
2023-07-06T15:35:02.170Z,101770
2023-07-06T15:40:00.792Z,101760
2023-07-06T15:45:00.805Z,101760
2023-07-06T15:50:00.658Z,101760
2023-07-06T15:55:00.729Z,101750
2023-07-06T16:00:10.366Z,101750
2023-07-06T16:05:03.371Z,101750
2023-07-06T16:10:01.221Z,101750
2023-07-06T16:15:00.902Z,101750
2023-07-06T16:20:00.654Z,101750
2023-07-06T16:25:00.716Z,101750
2023-07-06T16:30:00.689Z,101750
2023-07-06T16:35:00.814Z,101740
2023-07-06T16:40:00.742Z,101740
2023-07-06T16:45:00.708Z,101750
2023-07-06T16:50:00.752Z,101740
2023-07-06T16:55:00.769Z,101750
2023-07-06T17:00:00.976Z,101740
2023-07-06T17:05:00.786Z,101740
2023-07-06T17:10:00.794Z,101740
2023-07-06T17:15:01.814Z,101750
2023-07-06T17:20:00.704Z,101750
2023-07-06T17:25:00.724Z,101750
2023-07-06T17:30:00.744Z,101750
2023-07-06T17:35:00.775Z,101760
2023-07-06T17:40:02.155Z,101760
2023-07-06T17:45:00.692Z,101760
2023-07-06T17:50:00.712Z,101760
2023-07-06T17:55:00.825Z,101760
2023-07-06T18:00:01.476Z,101760
2023-07-06T18:05:00.642Z,101760
2023-07-06T18:10:00.694Z,101760
2023-07-06T18:15:00.755Z,101760
2023-07-06T18:20:00.719Z,101760
2023-07-06T18:25:00.718Z,101760
2023-07-06T18:30:00.930Z,101760
2023-07-06T18:35:00.709Z,101760
2023-07-06T18:40:00.715Z,101770
2023-07-06T18:45:04.837Z,101770
2023-07-06T18:50:01.054Z,101770
2023-07-06T18:55:00.715Z,101770
2023-07-06T19:00:01.180Z,101780
2023-07-06T19:05:01.822Z,101780
2023-07-06T19:10:01.038Z,101790
2023-07-06T19:15:00.725Z,101800
2023-07-06T19:20:00.780Z,101790
2023-07-06T19:25:00.821Z,101790
2023-07-06T19:30:00.710Z,101800
2023-07-06T19:35:00.688Z,101800
2023-07-06T19:40:01.092Z,101800
2023-07-06T19:45:00.657Z,101800
2023-07-06T19:50:00.680Z,101810
2023-07-06T19:55:00.839Z,101820
2023-07-06T20:00:02.120Z,101820
2023-07-06T20:05:00.714Z,101830
2023-07-06T20:10:01.093Z,101840
2023-07-06T20:15:01.216Z,101840
2023-07-06T20:20:01.205Z,101840
2023-07-06T20:25:00.755Z,101840
2023-07-06T20:30:00.703Z,101840
2023-07-06T20:35:01.899Z,101850
2023-07-06T20:40:00.788Z,101850
2023-07-06T20:45:00.710Z,101850
2023-07-06T20:50:00.771Z,101860
2023-07-06T20:55:00.669Z,101860
2023-07-06T21:00:02.193Z,101870
2023-07-06T21:05:01.142Z,101870
2023-07-06T21:10:00.920Z,101880
2023-07-06T21:15:00.852Z,101880
2023-07-06T21:20:00.789Z,101880
2023-07-06T21:25:00.810Z,101890
2023-07-06T21:30:01.070Z,101890
2023-07-06T21:35:01.632Z,101880
2023-07-06T21:40:00.842Z,101880
2023-07-06T21:45:00.748Z,101890
2023-07-06T21:50:00.677Z,101890
2023-07-06T21:55:00.869Z,101900
2023-07-06T22:00:03.272Z,101900
2023-07-06T22:05:00.723Z,101900
2023-07-06T22:10:00.745Z,101900
2023-07-06T22:15:00.875Z,101900
2023-07-06T22:20:00.682Z,101900
2023-07-06T22:25:00.848Z,101900
2023-07-06T22:30:02.162Z,101890
2023-07-06T22:35:00.676Z,101890
2023-07-06T22:40:00.708Z,101890
2023-07-06T22:45:00.775Z,101890
2023-07-06T22:50:00.749Z,101900
2023-07-06T22:55:00.761Z,101890
2023-07-06T23:00:02.528Z,101900
2023-07-06T23:05:00.664Z,101900
2023-07-06T23:10:00.995Z,101900
2023-07-06T23:15:00.749Z,101900
2023-07-06T23:20:00.774Z,101900
2023-07-06T23:25:02.361Z,101900
2023-07-06T23:30:01.111Z,101890
2023-07-06T23:35:00.747Z,101900
2023-07-06T23:40:00.691Z,101900
2023-07-06T23:45:00.707Z,101900
2023-07-06T23:50:00.888Z,101900
2023-07-06T23:55:01.064Z,101900
